Latest Coastal Weather Observations for Montague Island

IDN60701

Issued at 11:05 am EDT Thursday 23 October 2014 (issued every 10 minutes, with the page automatically refreshed every 10 minutes)

About coastal observations | Map of coastal stations | Coastal observations for NSW | Marine services | Other Formats
Station Details ID: 069017 Name: MONTAGUE ISLAND LIGHTHOUSE Lat: -36.25 Lon: 150.23 Height: 52.0 m
Data from the previous 72 hours. | See also: Recent months at Montague Island
Date/Time
EDT
Temp

°C
Wind Pressure Rain
since 9am
mm
Weather Cloud Vis
km
Sea
Height
m
Swell
Dir
 
Speed
knots
Gust
knots
hPa Trend Height
m
Period
s
Dir
23/11:00am 19.5 N 4 6 1017.6 - 0.0 - - - - - - -
23/10:30am 18.9 NNW 4 5 1017.8 - 0.0 - - - - - - -
23/10:00am 18.7 NNW 2 4 1017.8 - 0.0 - - - - - - -
23/09:30am 17.8 E 4 5 1017.7 - 0.0 - - - - - - -
23/09:00am 18.4 ESE 3 6 1017.7 - 0.0 - - - - - - -
23/08:30am 17.6 NNE 3 6 1017.5 - 0.0 - - - - - - -
23/08:00am 16.9 NNW 2 3 1017.6 - 0.0 - - - - - - -
23/07:30am 16.5 NNW 4 5 1017.4 - 0.0 - - - - - - -
23/07:00am 16.4 NNE 3 4 1017.1 - 0.0 - - - - - - -
23/06:30am 15.6 NNE 3 4 1016.8 - 0.0 - - - - - - -
23/06:00am 15.5 SW 2 2 1016.8 - 0.0 - - - - - - -
23/05:30am 15.6 S 2 3 1016.4 - 0.0 - - - - - - -
23/05:00am 15.4 SW 4 7 1016.1 - 0.0 - - - - - - -
23/04:30am 15.6 W 5 8 1016.2 - 0.0 - - - - - - -
23/04:00am 15.4 W 1 3 1015.7 - 0.0 - - - - - - -
23/03:30am 15.5 W 3 4 1016.0 - 0.0 - - - - - - -
23/03:00am 15.8 NW 4 5 1016.3 - 0.0 - - - - - - -
23/02:30am 16.2 NNW 4 5 1016.5 - 0.0 - - - - - - -
23/02:00am 16.0 N 6 7 1017.1 - 0.0 - - - - - - -
23/01:30am 16.4 N 8 10 1017.2 - 0.0 - - - - - - -
23/01:00am 16.7 N 10 12 1017.7 - 0.0 - - - - - - -
23/12:30am 17.1 N 10 14 1017.9 - 0.0 - - - - - - -
23/12:00am 17.2 N 10 13 1018.1 - 0.0 - - - - - - -
 
Date/Time
EDT
Temp

°C
Wind Pressure Rain
since 9am
mm
Weather Cloud Vis
km
Sea
Height
m
Swell
Dir
 
Speed
knots
Gust
knots
hPa Trend Height
m
Period
s
Dir
22/11:30pm 17.3 N 9 12 1018.6 - 0.0 - - - - - - -
22/11:00pm 17.4 N 9 12 1018.8 - 0.0 - - - - - - -
22/10:30pm 17.5 N 11 14 1019.1 - 0.0 - - - - - - -
22/10:00pm 17.7 N 14 18 1018.9 - 0.0 - - - - - - -
22/09:30pm 17.8 N 17 20 1019.0 - 0.0 - - - - - - -
22/09:00pm 17.9 NNE 18 22 1018.9 - 0.0 - - - - - - -
22/08:30pm 17.9 NNE 19 22 1018.8 - 0.0 - - - - - - -
22/08:00pm 17.9 NNE 16 19 1018.9 - 0.0 - - - - - - -
22/07:30pm 18.0 NNE 18 22 1018.9 - 0.0 - - - - - - -
22/07:00pm 18.0 NNE 19 23 1018.4 - 0.0 - - - - - - -
22/06:30pm 18.1 NNE 20 25 1018.4 - 0.0 - - - - - - -
22/06:00pm 18.3 NNE 20 23 1018.4 - 0.0 - - - - - - -
22/05:30pm 18.3 NNE 18 23 1018.4 - 0.0 - - - - - - -
22/05:00pm 18.5 NNE 19 23 1018.6 - 0.0 - - - - - - -
22/04:30pm 18.7 NNE 18 22 1018.8 - 0.0 - - - - - - -
22/04:00pm 18.8 NNE 18 22 1019.0 - 0.0 - - - - - - -
22/03:30pm 18.6 NNE 19 24 1019.3 - 0.0 - - - - - - -
22/03:00pm 18.6 NNE 19 25 1019.6 - 0.0 - - - - - - -
22/02:30pm 18.4 NNE 22 26 1019.9 - 0.0 - - - - - - -
22/02:00pm 18.5 NNE 21 25 1020.4 - 0.0 - - - - - - -
22/01:30pm 18.4 NNE 20 25 1021.0 - 0.0 - - - - - - -
22/01:00pm 18.1 NNE 21 24 1021.5 - 0.0 - - - - - - -
22/12:30pm 17.6 NNE 20 24 1022.0 - 0.0 - - - - - - -
22/12:00pm 17.9 NNE 19 25 1022.7 - 0.0 - - - - - - -
22/11:30am 17.4 NNE 22 27 1023.2 - 0.0 - - - - - - -
22/11:00am 17.3 N 23 27 1023.9 - 0.0 - - - - - - -
22/10:30am 17.4 N 21 27 1024.5 - 0.0 - - - - - - -
22/10:00am 17.3 N 20 28 1024.7 - 0.0 - - - - - - -
22/09:30am 16.9 N 20 27 1024.9 - 0.0 - - - - - - -
22/09:00am 16.7 N 19 25 1024.9 - 0.0 - - - - - - -
22/08:30am 16.6 N 21 27 1025.0 - 0.0 - - - - - - -
22/08:00am 16.3 N 21 28 1025.2 - 0.0 - - - - - - -
22/07:30am 16.1 N 20 26 1025.3 - 0.0 - - - - - - -
22/07:00am 15.8 N 22 28 1025.2 - 0.0 - - - - - - -
22/06:30am 15.4 N 20 27 1025.4 - 0.0 - - - - - - -
22/06:00am 15.4 N 21 26 1025.3 - 0.0 - - - - - - -
22/05:30am 15.4 N 19 25 1025.5 - 0.0 - - - - - - -
22/05:00am 15.8 N 16 22 1025.6 - 0.0 - - - - - - -
22/04:30am 15.3 N 17 21 1025.7 - 0.0 - - - - - - -
22/04:00am 15.4 N 17 23 1026.0 - 0.0 - - - - - - -
22/03:30am 15.6 N 18 23 1026.4 - 0.0 - - - - - - -
22/03:00am 15.7 N 17 24 1026.7 - 0.0 - - - - - - -
22/02:30am 16.0 NNW 17 23 1027.2 - 0.0 - - - - - - -
22/02:00am 16.1 N 19 25 1027.7 - 0.0 - - - - - - -
22/01:30am 16.0 NNW 18 25 1028.1 - 0.0 - - - - - - -
22/01:00am 15.7 NNW 14 18 1028.6 - 0.0 - - - - - - -
22/12:30am 15.8 NNW 15 19 1029.0 - 0.0 - - - - - - -
22/12:00am 15.7 NNW 14 19 1029.5 - 0.0 - - - - - - -
 
Date/Time
EDT
Temp

°C
Wind Pressure Rain
since 9am
mm
Weather Cloud Vis
km
Sea
Height
m
Swell
Dir
 
Speed
knots
Gust
knots
hPa Trend Height
m
Period
s
Dir
21/11:30pm 15.8 NNW 16 19 1029.7 - 0.0 - - - - - - -
21/11:00pm 15.9 NNW 15 19 1029.9 - 0.0 - - - - - - -
21/10:30pm 16.1 NNW 16 20 1030.0 - 0.0 - - - - - - -
21/10:00pm 16.2 N 13 18 1030.2 - 0.0 - - - - - - -
21/09:30pm 16.6 N 16 22 1030.2 - 0.0 - - - - - - -
21/09:00pm 16.6 NNE 17 21 1030.2 - 0.0 - - - - - - -
21/08:30pm 16.6 NNE 17 21 1030.1 - 0.0 - - - - - - -
21/08:00pm 16.6 NNE 17 21 1029.8 - 0.0 - - - - - - -
21/07:30pm 16.4 NNE 17 21 1029.6 - 0.0 - - - - - - -
21/07:00pm 16.4 NNE 16 21 1029.6 - 0.0 - - - - - - -
21/06:30pm 16.4 NNE 16 20 1029.5 - 0.0 - - - - - - -
21/06:00pm 16.2 NNE 15 19 1029.6 - 0.0 - - - - - - -
21/05:30pm 15.9 NNE 17 20 1029.5 - 0.0 - - - - - - -
21/05:00pm 16.3 NNE 15 20 1029.7 - 0.0 - - - - - - -
21/04:30pm 16.1 NNE 15 19 1029.7 - 0.0 - - - - - - -
21/04:00pm 16.3 NNE 13 17 1029.9 - 0.0 - - - - - - -
21/03:30pm 16.7 NE 14 18 1030.3 - 0.0 - - - - - - -
21/03:00pm 16.6 NE 16 19 1030.7 - 0.0 - - - - - - -
21/02:30pm 16.5 NE 15 19 1031.0 - 0.0 - - - - - - -
21/02:00pm 17.1 NE 16 21 1031.5 - 0.0 - - - - - - -
21/01:30pm 17.1 NE 13 16 1031.9 - 0.0 - - - - - - -
21/01:00pm 17.6 NE 12 16 1032.1 - 0.0 - - - - - - -
21/12:30pm 17.2 NE 11 14 1032.3 - 0.0 - - - - - - -
21/12:00pm 16.3 NE 11 15 1032.7 - 0.0 - - - - - - -
21/11:30am 16.4 ENE 4 5 1033.1 - 0.0 - - - - - - -
21/11:00am 16.0 NE 2 4 1033.3 - 0.0 - - - - - - -
21/10:30am 15.3 ENE 1 3 1033.3 - 0.0 - - - - - - -
21/10:00am 15.3 E 1 2 1033.4 - 0.0 - - - - - - -
21/09:30am 15.2 W 3 5 1033.3 - 0.0 - - - - - - -
21/09:00am 14.5 WNW 5 7 1033.1 - 0.0 - - - - - - -
21/08:30am 14.2 W 4 5 1032.9 - 0.0 - - - - - - -
21/08:00am 13.7 W 5 6 1032.6 - 0.0 - - - - - - -
21/07:30am 13.2 W 7 8 1032.4 - 0.0 - - - - - - -
21/07:00am 12.9 W 7 8 1032.2 - 0.0 - - - - - - -
21/06:30am 12.8 W 8 9 1031.9 - 0.0 - - - - - - -
21/06:00am 12.9 W 7 10 1031.8 - 0.0 - - - - - - -
21/05:30am 13.0 WNW 8 10 1031.7 - 0.0 - - - - - - -
21/05:00am 13.9 WNW 5 11 1031.6 - 0.0 - - - - - - -
21/04:30am 14.2 ENE 3 5 1031.6 - 0.0 - - - - - - -
21/04:00am 14.3 ESE 3 7 1031.8 - 0.0 - - - - - - -
21/03:30am 14.4 SE 4 7 1031.9 - 0.0 - - - - - - -
21/03:00am 14.4 E 8 11 1032.1 - 0.0 - - - - - - -
21/02:30am 14.4 E 8 11 1032.2 - 0.0 - - - - - - -
21/02:00am 14.5 E 8 10 1032.3 - 0.0 - - - - - - -
21/01:30am 14.4 ESE 8 12 1032.6 - 0.0 - - - - - - -
21/01:00am 14.5 ESE 9 13 1032.7 - 0.0 - - - - - - -
21/12:30am 14.6 E 11 14 1032.8 - 0.0 - - - - - - -
21/12:00am 14.6 E 10 13 1033.0 - 0.0 - - - - - - -
 
Date/Time
EDT
Temp

°C
Wind Pressure Rain
since 9am
mm
Weather Cloud Vis
km
Sea
Height
m
Swell
Dir
 
Speed
knots
Gust
knots
hPa Trend Height
m
Period
s
Dir
20/11:30pm 14.7 ESE 9 11 1033.0 - 0.0 - - - - - - -
20/11:00pm 14.6 ESE 9 12 1032.9 - 0.0 - - - - - - -
20/10:30pm 14.7 ESE 9 14 1033.0 - 0.0 - - - - - - -
20/10:00pm 14.6 ESE 7 12 1033.2 - 0.0 - - - - - - -
20/09:30pm 14.4 ESE 7 10 1033.2 - 0.0 - - - - - - -
20/09:00pm 14.5 E 10 12 1033.1 - 0.0 - - - - - - -
20/08:30pm 14.5 E 8 15 1032.8 - 0.0 - - - - - - -
20/08:00pm 14.6 ESE 10 16 1032.4 - 0.0 - - - - - - -
20/07:30pm 14.5 ESE 10 16 1032.3 - 0.0 - - - - - - -
20/07:00pm 14.7 SE 10 11 1032.0 - 0.0 - - - - - - -
20/06:30pm 14.7 SE 11 16 1031.8 - 0.0 - - - - - - -
20/06:00pm 14.8 SE 11 14 1031.5 - 0.0 - - - - - - -
20/05:30pm 14.9 SE 10 13 1031.4 - 0.0 - - - - - - -
20/05:00pm 15.2 SE 10 12 1031.3 - 0.0 - - - - - - -
20/04:30pm 15.4 SE 9 13 1031.1 - 0.0 - - - - - - -
20/04:00pm 15.3 SSE 11 14 1031.1 - 0.0 - - - - - - -
20/03:30pm 15.3 SSE 12 16 1031.0 - 0.0 - - - - - - -
20/03:00pm 15.1 SSE 14 18 1031.1 - 0.0 - - - - - - -
20/02:30pm 15.3 SE 14 17 1031.1 - 0.0 - - - - - - -
20/02:00pm 15.4 SE 15 19 1031.3 - 0.0 - - - - - - -
20/01:30pm 15.3 SE 16 19 1031.4 - 0.0 - - - - - - -
20/01:00pm 15.1 SSE 18 23 1031.4 - 0.0 - - - - - - -
20/12:30pm 15.1 S 17 21 1031.5 - 0.0 - - - - - - -
20/12:00pm 13.8 S 20 29 1031.7 - 0.0 - - - - - - -
20/11:30am 15.8 S 22 30 1031.2 - 0.0 - - - - - - -

Other Formats:

Comma delimited format used in spreadsheet applications
http://www.bom.gov.au/fwo/IDN60701/IDN60701.94939.axf

JavaScript Object Notation format (JSON) in row-major order
http://www.bom.gov.au/fwo/IDN60701/IDN60701.94939.json